Queens Village, New York
Current Conditions -  °F | °C
As of 6:51 AM on Friday 21 Nov 2014 (Local Time) from KJFK Reporting Station
Few Clouds Few Clouds  
Wind Chill: 15°   Ceiling: Unl
Heat Index: 29°   Visibility: 10mi
Dew Point:   Wind: 22mph
Humidity: 41%   Direction: 300°WNW
Pressure: 30.21"   Gusts: 29mph
Location:  40.73°N, 73.74°W
Report Text: KJFK 211151Z 30019G25KT 10SM FEW047 M02/M13 A3021 RMK AO2 PK WND 29027/1135 SLP228 T10171133 11006 21022 53033
Loading
Personal Weather Stations






























Interactive Weather Map New forecast layout! Learn more

10-Day Weather Forecast

Advertisements
Track Severe Weather on mobile